Time;durP1;ratioP1;P1;durP2;ratioP2;P2;SDS_P1;SDS_P2;PMS_P1;PMS_P2;Temp;Humidity;BMP_temperature;BMP_pressure;BME280_temperature;BME280_humidity;BME280_pressure;Samples;Min_cycle;Max_cycle;Signal;HPM_P1;HPM_P2
2022/11/13 05:22:36;;;;;;;12.15;6.18;;;;;;;4.81;100.00;101123.38;5109409;27;20388;-67
2022/11/13 05:25:20;;;;;;;9.80;5.35;;;;;;;4.83;100.00;101118.00;5108665;28;20361;-68
2022/11/13 05:28:04;;;;;;;9.57;5.75;;;;;;;4.88;100.00;101110.56;5109286;28;20566;-67
2022/11/13 05:30:48;;;;;;;9.02;5.40;;;;;;;4.89;100.00;101113.09;5109350;28;20064;-68
2022/11/13 05:33:32;;;;;;;10.38;5.75;;;;;;;4.86;100.00;101101.91;5109537;28;20051;-68
2022/11/13 05:36:17;;;;;;;8.73;4.75;;;;;;;4.86;100.00;101101.91;5109830;28;20047;-68
2022/11/13 05:39:02;;;;;;;7.57;5.47;;;;;;;4.86;100.00;101101.91;5109216;28;20518;-68
2022/11/13 05:41:46;;;;;;;10.35;5.40;;;;;;;4.92;100.00;101098.81;5108827;28;20120;-67
2022/11/13 05:44:30;;;;;;;8.05;4.60;;;;;;;4.87;100.00;101093.03;5109332;28;20071;-68
2022/11/13 05:47:14;;;;;;;5.60;4.15;;;;;;;4.88;100.00;101089.44;5109015;28;20404;-67
2022/11/13 05:49:58;;;;;;;7.18;4.63;;;;;;;4.92;100.00;101082.97;5108834;28;20059;-68
2022/11/13 05:52:41;;;;;;;8.40;5.40;;;;;;;4.94;100.00;101083.69;5108891;28;20096;-68
2022/11/13 05:55:25;;;;;;;6.80;4.72;;;;;;;4.89;100.00;101083.22;5108774;28;20580;-68
2022/11/13 05:58:11;;;;;;;6.57;4.78;;;;;;;4.91;100.00;101089.22;5108809;28;20101;-68
2022/11/13 06:01:18;;;;;;;9.93;5.10;;;;;;;4.90;100.00;101085.75;5108415;28;20073;-68
2022/11/13 06:04:03;;;;;;;;;;;;;;;4.90;100.00;101090.19;5109204;28;20130;-67
2022/11/13 06:06:47;;;;;;;8.13;4.63;;;;;;;4.96;100.00;101078.31;5108907;28;20367;-68
2022/11/13 06:09:31;;;;;;;8.30;4.45;;;;;;;4.85;100.00;101076.47;5108856;28;20090;-68
2022/11/13 06:12:15;;;;;;;7.68;4.20;;;;;;;4.90;100.00;101074.34;5108423;28;20439;-68
2022/11/13 06:14:58;;;;;;;7.60;4.15;;;;;;;4.89;100.00;101068.22;5108583;28;20113;-68
2022/11/13 06:17:45;;;;;;;8.52;4.60;;;;;;;4.74;100.00;101071.16;5108648;28;20058;-68
2022/11/13 06:20:29;;;;;;;7.20;4.05;;;;;;;4.81;100.00;101072.38;5108218;28;20133;-68
2022/11/13 06:23:13;;;;;;;6.68;4.07;;;;;;;4.83;100.00;101070.47;5108455;28;20054;-67
2022/11/13 06:26:11;;;;;;;12.65;4.82;;;;;;;4.78;100.00;101068.19;5108328;28;20129;-68
2022/11/13 06:28:56;;;;;;;7.05;4.40;;;;;;;4.81;100.00;101064.47;5108518;28;20100;-67
2022/11/13 06:31:40;;;;;;;6.93;3.97;;;;;;;4.69;100.00;101066.22;5107786;28;20569;-67
2022/11/13 06:34:24;;;;;;;6.40;4.03;;;;;;;4.74;100.00;101060.59;5094396;28;20051;-67
2022/11/13 06:37:08;;;;;;;7.40;4.13;;;;;;;4.70;100.00;101053.88;5094722;28;20058;-65
2022/11/13 06:39:52;;;;;;;7.05;4.38;;;;;;;4.60;100.00;101054.56;5094423;28;20094;-63
2022/11/13 06:42:36;;;;;;;7.68;4.63;;;;;;;4.62;100.00;101052.63;5094309;28;20048;-63
2022/11/13 06:45:20;;;;;;;8.07;4.90;;;;;;;4.59;100.00;101047.59;5094588;28;20066;-56
2022/11/13 06:48:04;;;;;;;7.75;4.47;;;;;;;4.57;100.00;101053.97;5093317;28;20515;-58
2022/11/13 06:50:49;;;;;;;5.53;4.40;;;;;;;4.51;100.00;101052.63;5094005;28;20134;-59
2022/11/13 06:53:33;;;;;;;6.55;4.70;;;;;;;4.39;100.00;101058.81;5094225;28;20055;-63
2022/11/13 06:56:18;;;;;;;6.97;4.15;;;;;;;4.51;100.00;101060.53;5094074;28;20105;-60
2022/11/13 06:59:02;;;;;;;8.30;4.25;;;;;;;4.48;100.00;101052.00;5094219;28;20059;-63
2022/11/13 07:01:49;;;;;;;7.88;4.47;;;;;;;4.55;100.00;101053.22;5093809;28;20059;-63
2022/11/13 07:04:33;;;;;;;5.95;4.55;;;;;;;4.54;100.00;101044.47;5094259;28;20108;-63
2022/11/13 07:07:17;;;;;;;4.57;3.65;;;;;;;4.56;100.00;101039.06;5094026;28;20105;-62
2022/11/13 07:10:01;;;;;;;6.75;5.00;;;;;;;4.52;100.00;101033.19;5092901;28;20055;-63
2022/11/13 07:12:45;;;;;;;6.80;3.90;;;;;;;4.55;100.00;101042.66;5093870;28;20043;-64
2022/11/13 07:15:33;;;;;;;6.55;3.60;;;;;;;4.55;100.00;101047.94;5094069;28;20527;-63
2022/11/13 07:18:18;;;;;;;5.93;3.80;;;;;;;4.55;100.00;101043.50;5094104;28;20097;-63
2022/11/13 07:21:08;;;;;;;7.90;4.05;;;;;;;4.51;100.00;101042.06;5093254;28;20558;-63
2022/11/13 07:23:52;;;;;;;5.95;3.80;;;;;;;4.54;100.00;101043.63;5093661;28;20506;-63
2022/11/13 07:26:36;;;;;;;7.70;4.63;;;;;;;4.59;100.00;101041.50;5092672;28;20055;-63
2022/11/13 07:29:20;;;;;;;6.88;3.83;;;;;;;4.66;100.00;101041.88;5093825;28;20104;-62
2022/11/13 07:32:04;;;;;;;5.15;4.32;;;;;;;4.62;100.00;101030.69;5093259;28;20095;-62
2022/11/13 07:34:48;;;;;;;7.15;4.57;;;;;;;4.68;100.00;101032.03;5093716;28;20105;-63
2022/11/13 07:37:32;;;;;;;8.45;4.93;;;;;;;4.70;100.00;101036.25;5077990;28;20063;-63
2022/11/13 07:40:16;;;;;;;6.13;3.67;;;;;;;4.70;100.00;101028.34;5093228;28;20055;-63
2022/11/13 07:43:01;;;;;;;7.35;4.88;;;;;;;4.71;100.00;101030.00;5093224;28;20583;-63
2022/11/13 07:45:45;;;;;;;6.20;3.80;;;;;;;4.71;100.00;101015.97;5091253;28;20047;-63
2022/11/13 07:48:29;;;;;;;9.60;5.50;;;;;;;4.77;100.00;101024.28;5093358;28;20450;-63
2022/11/13 07:51:13;;;;;;;6.82;4.18;;;;;;;4.84;100.00;101019.38;5077759;28;20047;-64
2022/11/13 07:53:57;;;;;;;8.07;4.03;;;;;;;4.84;100.00;101003.53;5092075;28;20070;-64
2022/11/13 07:56:41;;;;;;;6.28;4.05;;;;;;;4.98;100.00;101008.56;5092234;28;20082;-65
2022/11/13 07:59:25;;;;;;;8.38;5.50;;;;;;;5.08;100.00;101012.16;5092973;28;20529;-65
2022/11/13 08:02:14;;;;;;;7.18;4.32;;;;;;;5.14;100.00;101008.22;5092619;28;20144;-65
2022/11/13 08:04:58;;;;;;;9.38;4.72;;;;;;;5.24;100.00;101000.44;5093130;28;20104;-64
2022/11/13 08:07:44;;;;;;;6.40;4.05;;;;;;;5.31;100.00;101009.53;5091886;28;20136;-64
2022/11/13 08:10:28;;;;;;;5.68;4.35;;;;;;;5.49;100.00;101012.53;5092530;28;20055;-64
2022/11/13 08:13:12;;;;;;;8.93;5.28;;;;;;;5.58;100.00;101017.09;5092824;28;20067;-64
2022/11/13 08:16:01;;;;;;;7.15;4.95;;;;;;;5.73;100.00;101008.75;5092606;28;20054;-64
2022/11/13 08:18:45;;;;;;;7.90;4.30;;;;;;;5.84;100.00;101009.69;5092761;28;20569;-64
2022/11/13 08:21:29;;;;;;;5.80;4.00;;;;;;;5.81;100.00;101005.50;5092191;28;20070;-64
2022/11/13 08:24:13;;;;;;;7.90;5.07;;;;;;;5.90;100.00;101002.13;5092754;28;20043;-64
2022/11/13 08:26:57;;;;;;;5.18;3.90;;;;;;;5.83;100.00;100998.28;5092345;28;20055;-64
2022/11/13 08:29:41;;;;;;;8.30;5.15;;;;;;;5.80;100.00;100992.41;5092390;28;20059;-63
2022/11/13 08:32:25;;;;;;;7.60;4.00;;;;;;;5.87;100.00;100985.69;5091277;28;20413;-63
2022/11/13 08:35:10;;;;;;;6.10;4.40;;;;;;;5.95;100.00;100985.91;5092539;28;20511;-65
2022/11/13 08:37:54;;;;;;;5.80;3.97;;;;;;;5.93;100.00;100985.19;5092576;28;20096;-64
2022/11/13 08:40:37;;;;;;;6.97;4.03;;;;;;;6.03;100.00;100994.06;5092133;28;20047;-64
2022/11/13 08:43:21;;;;;;;5.63;3.72;;;;;;;6.15;100.00;100984.28;5092261;28;20070;-64
2022/11/13 08:46:05;;;;;;;7.35;4.40;;;;;;;6.23;100.00;100990.59;5092136;28;20121;-64
2022/11/13 08:48:49;;;;;;;6.38;3.95;;;;;;;6.16;100.00;100989.44;5092435;28;20135;-64
2022/11/13 08:51:33;;;;;;;6.07;3.80;;;;;;;6.30;100.00;100985.63;5091801;28;20416;-65
2022/11/13 08:54:17;;;;;;;5.70;4.00;;;;;;;6.25;100.00;100978.06;5092347;28;20050;-64
2022/11/13 08:57:01;;;;;;;6.90;3.60;;;;;;;6.36;100.00;100977.19;5092031;28;20070;-64
2022/11/13 08:59:45;;;;;;;7.05;4.28;;;;;;;6.45;100.00;100983.50;5092038;28;20069;-63
2022/11/13 09:02:29;;;;;;;5.82;3.80;;;;;;;6.66;100.00;100980.88;5091702;28;20420;-64
2022/11/13 09:05:13;;;;;;;6.35;4.10;;;;;;;6.95;100.00;100973.09;5091864;28;20055;-65
2022/11/13 09:07:59;;;;;;;6.93;3.97;;;;;;;7.20;100.00;100962.03;5090919;28;20105;-65
2022/11/13 09:10:43;;;;;;;7.10;4.55;;;;;;;7.34;100.00;100950.22;5091750;28;20129;-65
2022/11/13 09:13:27;;;;;;;6.85;3.78;;;;;;;7.21;100.00;100939.84;5076677;28;20055;-64
2022/11/13 09:16:14;;;;;;;5.40;3.30;;;;;;;7.25;100.00;100946.59;5092116;28;20055;-65
2022/11/13 09:18:58;;;;;;;6.30;4.28;;;;;;;7.45;100.00;100939.50;5091782;28;20062;-64
2022/11/13 09:21:42;;;;;;;7.45;4.20;;;;;;;7.49;99.43;100938.25;5090420;28;20043;-64
2022/11/13 09:24:25;;;;;;;8.18;3.72;;;;;;;7.67;98.90;100935.78;5090699;28;20097;-64
2022/11/13 09:27:11;;;;;;;5.07;3.72;;;;;;;7.81;98.23;100938.03;5091619;28;20055;-64
2022/11/13 09:29:54;;;;;;;5.68;3.42;;;;;;;7.95;96.10;100941.22;5091827;28;20424;-64
2022/11/13 09:32:38;;;;;;;6.55;3.72;;;;;;;8.19;95.21;100931.03;5091914;28;20082;-64
2022/11/13 09:35:33;;;;;;;4.95;3.50;;;;;;;8.37;93.53;100932.03;5091820;28;20074;-64
2022/11/13 09:38:17;;;;;;;5.85;3.58;;;;;;;8.73;92.83;100929.56;5091968;28;20055;-64
2022/11/13 09:41:07;;;;;;;6.18;3.72;;;;;;;9.07;91.29;100924.56;5091469;28;20144;-64
2022/11/13 09:44:19;;;;;;;4.45;3.30;;;;;;;9.31;90.22;100931.97;5091565;28;20042;-64
2022/11/13 09:47:32;;;;;;;6.53;3.80;;;;;;;9.59;87.51;100931.97;5091645;28;20046;-65
2022/11/13 09:50:23;;;;;;;5.97;3.70;;;;;;;9.59;88.46;100929.31;5090338;28;20074;-65
2022/11/13 09:53:11;;;;;;;5.97;3.70;;;;;;;9.81;87.34;100936.00;5091443;28;20135;-65
2022/11/13 09:56:23;;;;;;;4.05;3.50;;;;;;;10.18;83.41;100931.34;5091421;28;20146;-65
2022/11/13 09:59:15;;;;;;;5.13;3.35;;;;;;;10.41;83.98;100923.72;5091669;28;20425;-64
2022/11/13 10:02:13;;;;;;;5.35;3.63;;;;;;;11.09;79.71;100917.63;5091048;28;20146;-64
2022/11/13 10:05:22;;;;;;;4.68;3.08;;;;;;;11.90;74.61;100914.34;5092049;28;20496;-64
2022/11/13 10:08:16;;;;;;;4.68;3.08;;;;;;;12.34;70.90;100908.69;5093013;28;20047;-64
2022/11/13 10:11:07;;;;;;;4.05;3.15;;;;;;;12.98;66.66;100906.88;5095164;28;20458;-64
2022/11/13 10:13:56;;;;;;;4.45;2.90;;;;;;;13.76;64.42;100895.28;5095328;28;20050;-65
2022/11/13 10:16:48;;;;;;;3.03;2.70;;;;;;;13.80;63.19;100891.22;5095011;28;20547;-65
2022/11/13 10:19:43;;;;;;;4.60;3.58;;;;;;;13.77;62.41;100888.91;5095102;28;20404;-65
2022/11/13 10:22:38;;;;;;;4.53;3.15;;;;;;;13.79;63.23;100889.56;5094684;28;20112;-65
2022/11/13 10:25:27;;;;;;;3.47;3.17;;;;;;;13.48;63.23;100886.91;5094791;28;20055;-65
2022/11/13 10:28:22;;;;;;;4.75;3.45;;;;;;;14.46;58.62;100878.94;5095189;28;20059;-65
2022/11/13 10:31:09;;;;;;;4.75;2.97;;;;;;;15.04;56.63;100863.88;5094392;28;20507;-65
2022/11/13 10:33:56;;;;;;;5.15;3.42;;;;;;;15.03;55.87;100864.06;5094728;28;20121;-65
2022/11/13 10:37:11;;;;;;;4.35;3.20;;;;;;;15.53;53.92;100857.00;5094822;28;20051;-65
2022/11/13 10:39:54;;;;;;;4.57;2.72;;;;;;;15.94;53.83;100854.53;5094767;28;20120;-65
2022/11/13 10:42:40;;;;;;;4.03;3.45;;;;;;;15.86;52.70;100843.94;5094509;28;20055;-65
2022/11/13 10:45:24;;;;;;;3.25;2.95;;;;;;;15.75;53.26;100842.56;5094485;28;20096;-64
2022/11/13 10:48:38;;;;;;;3.47;2.90;;;;;;;16.64;51.44;100831.25;5094434;28;20117;-63
2022/11/13 10:51:28;;;;;;;5.38;3.67;;;;;;;16.49;51.21;100831.34;5092119;28;20043;-64
2022/11/13 10:54:24;;;;;;;4.43;3.45;;;;;;;16.24;51.59;100836.38;5094384;28;20047;-64
2022/11/13 10:57:29;;;;;;;4.68;3.20;;;;;;;16.43;51.55;100816.00;5094197;28;20051;-67
2022/11/13 11:00:33;;;;;;;4.65;3.70;;;;;;;16.36;50.98;100817.81;5092890;28;20043;-64
2022/11/13 11:03:17;;;;;;;4.85;3.28;;;;;;;16.13;51.52;100812.72;5094107;28;20051;-64
2022/11/13 11:06:03;;;;;;;4.65;3.80;;;;;;;15.74;52.01;100804.16;5094033;28;20051;-65
2022/11/13 11:08:47;;;;;;;4.88;3.95;;;;;;;16.57;49.69;100796.25;5094308;28;20055;-65
2022/11/13 11:14:41;;;;;;;3.95;3.55;;;;;;;16.51;51.30;100791.66;5094262;28;20109;-65
2022/11/13 11:17:45;;;;;;;5.40;3.45;;;;;;;17.22;49.53;100784.09;5094142;28;20128;-65
2022/11/13 11:20:38;;;;;;;5.00;3.42;;;;;;;16.85;49.77;100788.13;5093763;28;20055;-65
2022/11/13 11:23:59;;;;;;;7.47;4.40;;;;;;;18.06;46.21;100790.78;5093877;28;20073;-66
2022/11/13 11:26:57;;;;;;;6.55;4.50;;;;;;;17.64;47.55;100776.69;5093714;28;20149;-65
2022/11/13 11:29:54;;;;;;;6.05;3.60;;;;;;;16.88;48.66;100771.56;5093681;28;20047;-66
2022/11/13 11:32:44;;;;;;;;;;;;;;;17.98;46.59;100766.75;5094017;28;20088;-66
2022/11/13 11:35:44;;;;;;;4.82;3.83;;;;;;;16.99;48.60;100752.16;5094034;28;19922;-66
2022/11/13 11:38:50;;;;;;;7.13;3.50;;;;;;;17.37;48.62;100743.53;5093811;28;20155;-65
2022/11/13 11:41:45;;;;;;;5.80;4.00;;;;;;;17.51;47.46;100737.13;5093095;28;20055;-65
2022/11/13 11:45:01;;;;;;;5.93;3.78;;;;;;;18.02;47.05;100736.50;5093695;28;20046;-65
2022/11/13 11:47:46;;;;;;;5.05;3.70;;;;;;;18.28;46.27;100727.53;5093453;28;20135;-65
2022/11/13 11:50:36;;;;;;;5.03;3.60;;;;;;;18.44;46.34;100710.03;5092937;28;20059;-66
2022/11/13 11:54:04;;;;;;;5.20;3.67;;;;;;;17.34;47.21;100711.63;5093151;28;20067;-65
2022/11/13 11:56:56;;;;;;;5.93;4.00;;;;;;;18.30;45.53;100703.03;5070635;28;20405;-65
2022/11/13 11:59:59;;;;;;;6.80;3.60;;;;;;;17.89;46.30;100693.41;5093149;28;20055;-65
2022/11/13 12:02:56;;;;;;;7.45;4.30;;;;;;;18.06;46.92;100686.53;5093010;28;20137;-65
2022/11/13 12:05:49;;;;;;;5.40;3.97;;;;;;;17.73;47.11;100677.66;5093255;28;20067;-65
2022/11/13 12:09:01;;;;;;;7.97;4.50;;;;;;;16.69;49.49;100665.56;5089710;28;20186;-65
2022/11/13 12:12:26;;;;;;;7.05;4.20;;;;;;;17.37;48.49;100660.06;5082361;28;20043;-64
2022/11/13 12:15:20;;;;;;;5.70;3.55;;;;;;;17.07;49.48;100657.75;5075283;28;20047;-65
2022/11/13 12:18:38;;;;;;;6.00;4.38;;;;;;;16.20;53.09;100652.34;5072347;28;20115;-65
2022/11/13 12:21:26;;;;;;;7.25;4.30;;;;;;;15.68;55.03;100640.28;5076686;28;20092;-65
2022/11/13 12:24:32;;;;;;;6.35;4.22;;;;;;;16.09;54.78;100640.28;5077469;28;20194;-65
2022/11/13 12:27:35;;;;;;;7.50;4.50;;;;;;;15.42;56.89;100640.91;5072229;28;20120;-65
2022/11/13 12:30:25;;;;;;;5.72;4.25;;;;;;;14.95;57.07;100631.63;5071537;28;20055;-65
2022/11/13 12:33:12;;;;;;;7.20;4.63;;;;;;;14.83;58.83;100630.47;5072075;28;20051;-65
2022/11/13 12:35:57;;;;;;;5.93;4.18;;;;;;;15.09;59.37;100630.72;5071238;28;20067;-64
2022/11/13 12:38:53;;;;;;;8.75;4.88;;;;;;;14.15;62.30;100627.25;5072107;28;20135;-65
2022/11/13 12:41:52;;;;;;;8.35;4.97;;;;;;;14.25;63.21;100619.72;5071855;28;20070;-64
2022/11/13 12:44:45;;;;;;;9.02;5.00;;;;;;;12.75;70.34;100618.06;5072135;28;20124;-65
2022/11/13 12:47:30;;;;;;;7.80;4.88;;;;;;;13.21;69.16;100618.88;5072114;28;20520;-65
2022/11/13 12:50:25;;;;;;;8.88;4.65;;;;;;;13.13;69.98;100610.09;5071674;28;20097;-64
2022/11/13 12:53:11;;;;;;;10.32;5.68;;;;;;;13.43;68.79;100606.50;5072085;28;20139;-65
2022/11/13 12:55:59;;;;;;;8.98;5.22;;;;;;;13.00;70.91;100606.19;5071736;28;20142;-65
2022/11/13 12:58:52;;;;;;;;;;;;;;;13.13;71.52;100602.88;5072312;28;20074;-64
2022/11/13 13:01:45;;;;;;;11.70;4.90;;;;;;;12.95;73.52;100595.19;5070517;28;19923;-64
2022/11/13 13:04:55;;;;;;;9.68;5.15;;;;;;;12.95;72.98;100589.00;5072046;28;20059;-64
2022/11/13 13:07:47;;;;;;;8.82;5.18;;;;;;;12.87;73.14;100583.72;5057326;28;20044;-65
2022/11/13 13:10:48;;;;;;;11.82;5.47;;;;;;;12.53;75.31;100576.16;5070311;28;20119;-65
2022/11/13 13:14:09;;;;;;;8.55;4.80;;;;;;;12.50;75.64;100567.47;5071551;28;20139;-65
2022/11/13 13:17:05;;;;;;;12.27;5.65;;;;;;;12.49;74.68;100549.78;5071984;28;20048;-65
2022/11/13 13:20:05;;;;;;;9.13;4.57;;;;;;;12.62;74.80;100543.00;5074261;28;20458;-65
2022/11/13 13:22:58;;;;;;;9.00;5.43;;;;;;;12.67;75.18;100546.81;5071671;28;20150;-64
2022/11/13 13:25:42;;;;;;;9.10;5.53;;;;;;;12.48;75.63;100541.94;5071484;28;20496;-65
2022/11/13 13:28:26;;;;;;;8.35;5.10;;;;;;;12.47;75.23;100538.44;5071519;28;20051;-65
2022/11/13 13:31:17;;;;;;;9.88;5.18;;;;;;;12.13;76.70;100532.69;5071202;28;20496;-65
2022/11/13 13:34:20;;;;;;;8.10;4.68;;;;;;;12.40;77.21;100534.81;5071466;28;20071;-65
2022/11/13 13:37:20;;;;;;;7.97;4.80;;;;;;;12.42;77.34;100527.44;5071630;28;20166;-65
2022/11/13 13:40:14;;;;;;;8.70;5.75;;;;;;;12.21;77.23;100514.75;5071576;28;20066;-65
2022/11/13 13:43:22;;;;;;;8.35;4.35;;;;;;;11.99;79.09;100507.53;5079975;28;20519;-65
2022/11/13 13:46:20;;;;;;;9.30;5.25;;;;;;;12.38;77.48;100514.63;5085795;28;20039;-65
2022/11/13 13:49:13;;;;;;;7.53;4.72;;;;;;;12.30;76.59;100499.50;5085731;28;20497;-65
2022/11/13 13:51:57;;;;;;;8.25;6.10;;;;;;;12.31;76.52;100505.66;5085407;28;20126;-65
2022/11/13 13:54:43;;;;;;;8.02;4.32;;;;;;;12.38;76.33;100504.75;5080598;28;20143;-65
2022/11/13 13:57:29;;;;;;;8.75;5.38;;;;;;;12.49;75.70;100500.84;5075400;28;20523;-65
2022/11/13 14:00:15;;;;;;;10.80;5.13;;;;;;;12.55;76.13;100500.13;5081685;28;20070;-65
2022/11/13 14:03:00;;;;;;;9.52;4.63;;;;;;;12.28;76.54;100501.53;5091294;28;20531;-65
2022/11/13 14:05:45;;;;;;;7.65;4.80;;;;;;;12.53;76.66;100499.50;5095449;28;20043;-65
2022/11/13 14:08:28;;;;;;;8.10;4.80;;;;;;;12.48;76.94;100499.19;5095243;28;20059;-65
2022/11/13 14:11:25;;;;;;;6.82;4.43;;;;;;;12.54;76.30;100497.66;5095028;28;20113;-65
2022/11/13 14:14:24;;;;;;;8.40;4.18;;;;;;;12.44;75.69;100493.38;5094269;28;20069;-65
2022/11/13 14:17:09;;;;;;;9.55;5.45;;;;;;;12.37;76.00;100487.06;5095182;28;20124;-65
2022/11/13 14:19:59;;;;;;;8.13;4.93;;;;;;;12.40;76.16;100488.59;5094830;28;20055;-65
2022/11/13 14:22:47;;;;;;;9.45;4.85;;;;;;;12.47;76.34;100471.66;5094899;28;20144;-65
2022/11/13 14:25:32;;;;;;;8.43;4.93;;;;;;;12.43;76.77;100474.84;5094702;28;20100;-66
2022/11/13 14:28:18;;;;;;;7.57;4.57;;;;;;;12.29;76.41;100476.47;5093768;28;20417;-66
2022/11/13 14:31:06;;;;;;;7.13;3.85;;;;;;;12.23;77.45;100482.53;5094464;28;20074;-65
2022/11/13 14:33:50;;;;;;;;;;;;;;;12.01;78.52;100481.50;5094411;28;20074;-65
2022/11/13 14:36:36;;;;;;;5.95;4.22;;;;;;;11.95;78.65;100476.88;5094867;28;19986;-65
2022/11/13 14:39:25;;;;;;;8.82;5.20;;;;;;;11.76;79.87;100470.13;5094569;28;20097;-65
2022/11/13 14:42:20;;;;;;;7.72;4.35;;;;;;;11.84;79.31;100456.75;5094189;28;20634;-65
2022/11/13 14:45:12;;;;;;;8.52;5.22;;;;;;;11.88;79.38;100459.91;5079352;28;20070;-65
2022/11/13 14:48:15;;;;;;;6.25;3.75;;;;;;;11.96;78.88;100465.19;5094455;28;20090;-65
2022/11/13 14:51:02;;;;;;;10.27;4.93;;;;;;;11.95;78.99;100460.88;5094121;28;20411;-68
2022/11/13 14:53:56;;;;;;;12.35;4.75;;;;;;;11.90;79.81;100458.72;5094240;28;20092;-66
2022/11/13 14:56:41;;;;;;;9.70;5.10;;;;;;;11.89;79.76;100466.91;5094499;28;20105;-65
2022/11/13 14:59:27;;;;;;;10.10;4.70;;;;;;;11.65;81.06;100475.84;5094460;28;20051;-66
2022/11/13 15:02:11;;;;;;;12.15;5.13;;;;;;;11.69;81.38;100478.00;5093801;28;20226;-66
2022/11/13 15:04:55;;;;;;;8.02;4.57;;;;;;;11.64;81.33;100469.66;5094364;28;20101;-66
2022/11/13 15:07:41;;;;;;;9.10;4.78;;;;;;;11.55;81.72;100470.72;5094097;28;20459;-66
2022/11/13 15:10:26;;;;;;;11.93;5.47;;;;;;;11.55;82.67;100469.91;5093731;28;20058;-65
2022/11/13 15:13:12;;;;;;;10.00;5.25;;;;;;;11.50;82.75;100458.91;5093803;28;20169;-65
2022/11/13 15:15:57;;;;;;;16.98;7.20;;;;;;;11.39;83.07;100465.44;5094050;28;20051;-65
2022/11/13 15:18:49;;;;;;;11.88;5.85;;;;;;;11.36;83.76;100458.63;5094108;28;20093;-66
2022/11/13 15:21:33;;;;;;;8.07;5.30;;;;;;;11.34;84.51;100467.78;5093226;28;20592;-66
2022/11/13 15:24:17;;;;;;;10.02;5.35;;;;;;;11.18;84.85;100462.53;5093786;28;20117;-65
2022/11/13 15:27:01;;;;;;;12.90;4.82;;;;;;;11.06;84.82;100467.41;5093771;28;20058;-64
2022/11/13 15:29:46;;;;;;;12.05;5.43;;;;;;;11.05;85.27;100477.22;5094049;28;20397;-64
2022/11/13 15:32:30;;;;;;;9.68;5.00;;;;;;;10.97;85.55;100471.94;5093398;28;20039;-65
2022/11/13 15:35:16;;;;;;;12.73;5.70;;;;;;;10.78;86.49;100465.13;5093425;28;20074;-65
2022/11/13 15:38:00;;;;;;;8.98;5.40;;;;;;;10.82;87.40;100462.94;5093550;28;20153;-65
2022/11/13 15:40:44;;;;;;;13.82;6.95;;;;;;;10.77;87.85;100466.13;5093118;28;20086;-64
2022/11/13 15:43:28;;;;;;;13.18;5.68;;;;;;;10.67;87.63;100468.13;5093453;28;20124;-64
2022/11/13 15:46:15;;;;;;;16.85;6.57;;;;;;;10.57;88.80;100465.66;5093117;28;20132;-65
2022/11/13 15:48:58;;;;;;;13.38;6.63;;;;;;;10.49;89.87;100462.16;5093558;28;20124;-63
2022/11/13 15:51:45;;;;;;;12.15;5.72;;;;;;;10.40;90.29;100458.66;5093166;28;20073;-65
2022/11/13 15:54:35;;;;;;;10.93;5.47;;;;;;;10.22;91.24;100449.97;5094108;28;20565;-65
2022/11/13 15:57:21;;;;;;;10.45;4.93;;;;;;;10.03;94.13;100462.59;5093783;28;20050;-64
2022/11/13 16:00:13;;;;;;;15.03;5.53;;;;;;;10.01;94.69;100472.59;5092793;28;20055;-64
2022/11/13 16:02:57;;;;;;;11.98;5.80;;;;;;;9.87;96.68;100480.38;5093006;28;20042;-65
2022/11/13 16:05:41;;;;;;;15.57;7.72;;;;;;;9.87;98.41;100475.91;5091958;28;20193;-65
2022/11/13 16:08:25;;;;;;;14.05;6.07;;;;;;;9.86;97.28;100473.41;5091983;28;20116;-65
2022/11/13 16:11:13;;;;;;;11.45;6.28;;;;;;;9.83;97.25;100477.22;5091807;28;20090;-65
2022/11/13 16:13:57;;;;;;;13.27;6.00;;;;;;;9.75;97.39;100469.22;5093076;28;20523;-65
2022/11/13 16:16:41;;;;;;;13.18;6.82;;;;;;;9.62;100.00;100463.53;5092636;28;20093;-65
2022/11/13 16:19:25;;;;;;;14.23;6.05;;;;;;;9.47;100.00;100471.28;5092631;28;20054;-65
2022/11/13 16:22:16;;;;;;;9.73;4.78;;;;;;;9.14;100.00;100472.97;5092227;28;20054;-65
2022/11/13 16:25:00;;;;;;;12.88;5.70;;;;;;;8.85;100.00;100471.47;5092760;28;20184;-65
2022/11/13 16:27:44;;;;;;;10.57;5.22;;;;;;;8.75;100.00;100469.91;5092842;28;20479;-65
2022/11/13 16:30:30;;;;;;;12.82;5.35;;;;;;;8.58;100.00;100476.94;5092070;28;20059;-65
2022/11/13 16:33:14;;;;;;;9.95;5.38;;;;;;;8.44;100.00;100475.66;5092641;28;20075;-65
2022/11/13 16:35:58;;;;;;;9.70;5.03;;;;;;;8.31;100.00;100469.88;5092224;28;20109;-65
2022/11/13 16:38:42;;;;;;;13.20;6.28;;;;;;;8.10;100.00;100465.72;5092176;28;20050;-65
2022/11/13 16:41:25;;;;;;;13.88;6.57;;;;;;;8.05;100.00;100473.31;5090754;28;20354;-65
2022/11/13 16:44:09;;;;;;;9.85;5.78;;;;;;;7.95;100.00;100477.84;5092110;28;20055;-65
2022/11/13 16:46:54;;;;;;;15.70;7.05;;;;;;;7.88;100.00;100466.97;5091984;28;20100;-63
2022/11/13 16:49:38;;;;;;;25.20;11.73;;;;;;;7.82;100.00;100474.72;5092049;28;20081;-65
2022/11/13 16:52:22;;;;;;;13.45;7.97;;;;;;;7.76;100.00;100478.81;5092043;28;20047;-72
2022/11/13 16:55:06;;;;;;;15.95;8.77;;;;;;;7.60;100.00;100479.47;5092199;28;20121;-72
2022/11/13 16:57:50;;;;;;;12.70;8.18;;;;;;;7.65;100.00;100481.66;5092140;28;20066;-72
2022/11/13 17:00:34;;;;;;;13.10;8.40;;;;;;;7.54;100.00;100477.41;5091948;28;20098;-71
2022/11/13 17:03:18;;;;;;;15.57;7.80;;;;;;;7.40;100.00;100469.09;5091927;28;20421;-70
2022/11/13 17:06:02;;;;;;;15.45;7.55;;;;;;;7.35;100.00;100470.38;5091806;28;20058;-71
2022/11/13 17:08:51;;;;;;;14.95;8.68;;;;;;;7.42;100.00;100469.78;5092059;28;20101;-72
2022/11/13 17:11:35;;;;;;;12.38;7.13;;;;;;;7.30;100.00;100464.72;5091856;28;20051;-71
2022/11/13 17:14:19;;;;;;;13.68;7.50;;;;;;;7.15;100.00;100474.09;5090798;28;20059;-70
2022/11/13 17:17:04;;;;;;;12.73;7.63;;;;;;;7.01;100.00;100466.63;5091600;28;20105;-70
2022/11/13 17:19:48;;;;;;;14.73;7.88;;;;;;;6.84;100.00;100468.19;5092053;28;20181;-71
2022/11/13 17:22:32;;;;;;;19.02;8.73;;;;;;;6.86;100.00;100470.72;5091375;28;20055;-72
2022/11/13 17:25:17;;;;;;;14.93;8.68;;;;;;;6.65;100.00;100463.81;5091601;28;20143;-70
2022/11/13 17:28:01;;;;;;;15.18;7.90;;;;;;;6.60;100.00;100465.22;5090644;28;20131;-69
2022/11/13 17:30:45;;;;;;;18.13;8.23;;;;;;;6.45;100.00;100470.09;5091635;28;20051;-70
2022/11/13 17:33:29;;;;;;;15.75;8.65;;;;;;;6.38;100.00;100476.91;5091915;28;20054;-69
2022/11/13 17:36:14;;;;;;;23.05;9.13;;;;;;;6.34;100.00;100464.97;5092132;28;20169;-70
2022/11/13 17:38:58;;;;;;;23.75;9.02;;;;;;;6.21;100.00;100462.59;5091584;28;20074;-71
2022/11/13 17:41:42;;;;;;;21.98;9.75;;;;;;;6.14;100.00;100467.63;5091145;28;20140;-69
2022/11/13 17:44:25;;;;;;;19.67;9.20;;;;;;;6.08;100.00;100457.59;5091822;28;20410;-70
2022/11/13 17:47:09;;;;;;;18.98;8.45;;;;;;;6.09;100.00;100459.25;5091443;28;20470;-70
2022/11/13 17:49:54;;;;;;;19.23;8.98;;;;;;;5.89;100.00;100457.56;5091546;28;20138;-69
2022/11/13 17:52:38;;;;;;;19.83;9.18;;;;;;;5.98;100.00;100462.88;5091407;28;20051;-71
2022/11/13 17:55:23;;;;;;;21.20;8.23;;;;;;;5.81;100.00;100460.06;5091250;28;20106;-72
2022/11/13 17:58:07;;;;;;;20.77;9.02;;;;;;;5.81;100.00;100460.06;5091669;28;20117;-70
2022/11/13 18:00:51;;;;;;;21.83;9.63;;;;;;;5.81;100.00;100454.78;5091228;28;20104;-70
2022/11/13 18:03:36;;;;;;;19.92;9.10;;;;;;;5.84;100.00;100459.75;5091472;28;20515;-70
2022/11/13 18:06:20;;;;;;;22.23;9.50;;;;;;;5.78;100.00;100453.22;5091219;28;20086;-70
2022/11/13 18:09:07;;;;;;;20.23;9.50;;;;;;;5.84;100.00;100449.19;5091289;28;20047;-70
2022/11/13 18:11:51;;;;;;;22.35;9.75;;;;;;;5.82;100.00;100446.69;5091285;28;20137;-70
2022/11/13 18:14:35;;;;;;;22.33;9.73;;;;;;;5.86;100.00;100453.34;5091201;28;20054;-70
2022/11/13 18:17:22;;;;;;;27.60;9.82;;;;;;;5.93;100.00;100443.97;5091088;28;20047;-70
2022/11/13 18:20:06;;;;;;;19.45;8.77;;;;;;;5.98;100.00;100447.00;5091200;28;20102;-72
2022/11/13 18:22:50;;;;;;;20.65;9.65;;;;;;;6.03;100.00;100454.53;5089997;28;20055;-72
2022/11/13 18:25:35;;;;;;;19.42;9.48;;;;;;;6.04;100.00;100456.19;5091128;28;20067;-71
2022/11/13 18:28:19;;;;;;;22.23;9.32;;;;;;;6.03;100.00;100451.88;5091495;28;20047;-71